Time;durP1;ratioP1;P1;durP2;ratioP2;P2;SDS_P1;SDS_P2;PMS_P1;PMS_P2;Temp;Humidity;BMP_temperature;BMP_pressure;BME280_temperature;BME280_humidity;BME280_pressure;Samples;Min_cycle;Max_cycle;Signal;HPM_P1;HPM_P2
2020/12/11 00:00:21;;;;;;;26.73;12.57;;;3.40;70.50;;;;;;5053568;28;20096;-73
2020/12/11 00:02:47;;;;;;;23.33;12.07;;;3.40;70.60;;;;;;5052608;28;20025;-72
2020/12/11 00:05:13;;;;;;;30.40;13.23;;;3.40;70.40;;;;;;5052255;28;20029;-73
2020/12/11 00:07:40;;;;;;;30.00;12.93;;;3.50;70.40;;;;;;5053476;28;20013;-72
2020/12/11 00:10:11;;;;;;;25.75;11.70;;;3.50;70.50;;;;;;5053699;28;20052;-72
2020/12/11 00:12:37;;;;;;;26.80;12.18;;;3.50;70.50;;;;;;5053611;28;20025;-72
2020/12/11 00:15:05;;;;;;;26.95;11.05;;;3.50;70.30;;;;;;5053335;28;20022;-72
2020/12/11 00:17:31;;;;;;;25.95;11.43;;;3.50;70.10;;;;;;5053552;28;20043;-72
2020/12/11 00:19:57;;;;;;;28.00;11.65;;;3.50;70.00;;;;;;5053784;28;20441;-72
2020/12/11 00:22:23;;;;;;;22.95;10.85;;;3.50;70.10;;;;;;5053773;28;20083;-71
2020/12/11 00:24:50;;;;;;;26.08;11.80;;;3.50;70.00;;;;;;5054196;28;20033;-70
2020/12/11 00:27:16;;;;;;;25.70;11.65;;;3.50;70.00;;;;;;5052614;28;20024;-71
2020/12/11 00:29:41;;;;;;;25.90;10.75;;;3.50;70.00;;;;;;5053077;28;20021;-72
2020/12/11 00:32:07;;;;;;;26.85;11.38;;;3.40;70.00;;;;;;5052001;28;20017;-71
2020/12/11 00:34:34;;;;;;;33.03;11.93;;;3.50;70.10;;;;;;5052636;28;20028;-72
2020/12/11 00:37:00;;;;;;;23.52;10.75;;;3.50;70.00;;;;;;5052899;28;20029;-71
2020/12/11 00:39:25;;;;;;;25.20;11.05;;;3.50;69.90;;;;;;5053289;28;20064;-71
2020/12/11 00:41:51;;;;;;;22.45;10.27;;;3.50;69.80;;;;;;5052350;28;20071;-71
2020/12/11 00:44:17;;;;;;;21.40;9.85;;;3.50;69.60;;;;;;5053184;28;20054;-71
2020/12/11 00:46:43;;;;;;;21.77;10.00;;;3.50;69.50;;;;;;5053069;28;20352;-71
2020/12/11 00:49:09;;;;;;;18.27;8.68;;;3.40;69.50;;;;;;5052849;28;20364;-71
2020/12/11 00:51:34;;;;;;;20.08;9.93;;;3.40;69.50;;;;;;5052764;28;20024;-72
2020/12/11 00:54:00;;;;;;;21.50;10.60;;;3.40;69.40;;;;;;5053329;28;20345;-72
2020/12/11 00:56:26;;;;;;;17.55;9.35;;;3.30;69.50;;;;;;5052691;28;20108;-71
2020/12/11 00:58:51;;;;;;;20.75;10.13;;;3.30;69.60;;;;;;5052903;28;20033;-72
2020/12/11 01:01:17;;;;;;;19.02;10.02;;;3.30;69.60;;;;;;5053293;28;20432;-72
2020/12/11 01:03:43;;;;;;;19.70;9.60;;;3.30;69.80;;;;;;5056941;28;20021;-71
2020/12/11 01:06:09;;;;;;;25.83;10.88;;;3.30;70.30;;;;;;5056783;28;20357;-72
2020/12/11 01:08:34;;;;;;;22.08;9.68;;;3.30;69.70;;;;;;5056290;28;20025;-72
2020/12/11 01:11:01;;;;;;;22.00;9.90;;;3.30;69.80;;;;;;5056932;28;20020;-72
2020/12/11 01:13:27;;;;;;;23.85;10.65;;;3.30;69.70;;;;;;5056379;28;20021;-71
2020/12/11 01:15:53;;;;;;;24.88;10.18;;;3.30;69.60;;;;;;5056823;28;20379;-71
2020/12/11 01:18:18;;;;;;;21.65;9.50;;;3.30;69.60;;;;;;5056714;28;20025;-73
2020/12/11 01:20:44;;;;;;;25.30;10.80;;;3.30;69.40;;;;;;5056271;28;20373;-71
2020/12/11 01:23:10;;;;;;;18.95;9.95;;;3.30;69.50;;;;;;5056187;28;20027;-71
2020/12/11 01:25:36;;;;;;;20.77;9.85;;;3.30;69.50;;;;;;5056656;28;20021;-72
2020/12/11 01:28:02;;;;;;;23.27;10.15;;;3.20;69.30;;;;;;5056022;28;20028;-72
2020/12/11 01:30:27;;;;;;;24.60;10.60;;;3.20;69.30;;;;;;5056306;28;20024;-71
2020/12/11 01:32:53;;;;;;;19.98;9.68;;;3.10;69.30;;;;;;5056210;28;20441;-71
2020/12/11 01:35:19;;;;;;;23.17;10.15;;;3.10;69.40;;;;;;5056160;28;20067;-72
2020/12/11 01:37:44;;;;;;;21.95;10.60;;;3.10;69.40;;;;;;5056163;28;20032;-72
2020/12/11 01:40:10;;;;;;;19.30;9.43;;;3.10;69.50;;;;;;5056053;28;20116;-71
2020/12/11 01:42:36;;;;;;;19.77;9.57;;;3.10;69.30;;;;;;5056091;28;20043;-71
2020/12/11 01:45:05;;;;;;;18.90;9.82;;;3.10;69.40;;;;;;5056583;28;20114;-72
2020/12/11 01:47:31;;;;;;;23.75;10.40;;;3.10;69.30;;;;;;5054563;28;20032;-72
2020/12/11 01:49:57;;;;;;;21.02;9.13;;;3.10;69.50;;;;;;5055877;28;20021;-72
2020/12/11 01:52:23;;;;;;;22.77;9.60;;;3.10;69.60;;;;;;5055859;28;20025;-71
2020/12/11 01:54:49;;;;;;;19.55;9.88;;;3.20;69.20;;;;;;5055568;28;20453;-71
2020/12/11 01:57:23;;;;;;;21.50;9.82;;;3.10;69.10;;;;;;5056390;28;20020;-72
2020/12/11 01:59:53;;;;;;;22.27;9.18;;;3.10;69.00;;;;;;5056007;28;20029;-72
2020/12/11 02:02:20;;;;;;;23.90;10.05;;;3.10;69.20;;;;;;5054399;28;20029;-71
2020/12/11 02:04:47;;;;;;;19.80;9.98;;;3.10;69.30;;;;;;5055684;28;20375;-71
2020/12/11 02:07:12;;;;;;;31.85;10.80;;;3.10;69.10;;;;;;5055898;28;20130;-72
2020/12/11 02:09:39;;;;;;;25.13;10.75;;;3.10;68.80;;;;;;5055983;28;20041;-71
2020/12/11 02:12:05;;;;;;;25.23;9.07;;;3.10;68.70;;;;;;5055712;28;20053;-72
2020/12/11 02:14:32;;;;;;;20.38;10.65;;;3.10;68.80;;;;;;5054502;28;20052;-73
2020/12/11 02:17:05;;;;;;;19.63;8.75;;;3.10;68.60;;;;;;5055420;28;20016;-72
2020/12/11 02:19:35;;;;;;;25.77;10.40;;;3.00;68.50;;;;;;5054099;28;20041;-72
2020/12/11 02:22:02;;;;;;;20.65;9.68;;;3.00;68.40;;;;;;5055411;28;20024;-72
2020/12/11 02:24:27;;;;;;;16.70;8.55;;;2.90;68.50;;;;;;5054717;28;20082;-72
2020/12/11 02:26:55;;;;;;;21.17;9.63;;;2.90;68.50;;;;;;5055334;28;20100;-72
2020/12/11 02:29:21;;;;;;;20.20;9.38;;;2.90;68.20;;;;;;5055201;28;20028;-71
2020/12/11 02:31:47;;;;;;;27.17;9.70;;;2.90;68.40;;;;;;5055799;28;20024;-71
2020/12/11 02:34:12;;;;;;;20.98;9.95;;;2.90;68.50;;;;;;5055179;28;20446;-71
2020/12/11 02:36:38;;;;;;;24.98;10.20;;;2.90;68.60;;;;;;5053476;28;20056;-71
2020/12/11 02:39:03;;;;;;;24.52;10.38;;;2.90;68.40;;;;;;5054981;28;20029;-72
2020/12/11 02:41:29;;;;;;;21.05;10.13;;;2.90;68.20;;;;;;5054922;28;20028;-72
2020/12/11 02:43:55;;;;;;;23.88;9.63;;;2.90;68.20;;;;;;5055131;28;20460;-71
2020/12/11 02:46:21;;;;;;;21.17;10.05;;;2.90;68.20;;;;;;5054835;28;20429;-71
2020/12/11 02:48:46;;;;;;;22.02;10.10;;;2.90;68.10;;;;;;5053508;28;20033;-72
2020/12/11 02:51:12;;;;;;;18.30;9.77;;;2.90;68.00;;;;;;5054784;28;20029;-72
2020/12/11 02:53:39;;;;;;;21.33;9.75;;;2.80;68.00;;;;;;5054387;28;20449;-72
2020/12/11 02:56:04;;;;;;;24.70;10.13;;;2.80;68.00;;;;;;5054733;28;20024;-71
2020/12/11 02:58:30;;;;;;;24.63;8.95;;;2.80;67.80;;;;;;5054879;28;20025;-71
2020/12/11 03:00:56;;;;;;;21.27;10.40;;;2.80;67.90;;;;;;5054607;28;20021;-72
2020/12/11 03:03:21;;;;;;;21.92;9.75;;;2.70;67.90;;;;;;5054860;28;20456;-73
2020/12/11 03:05:47;;;;;;;23.63;9.65;;;2.70;67.90;;;;;;5054801;28;20060;-73
2020/12/11 03:08:13;;;;;;;25.45;10.27;;;2.70;67.90;;;;;;5054995;28;20056;-72
2020/12/11 03:10:38;;;;;;;20.00;9.70;;;2.70;67.70;;;;;;5055009;28;20045;-73
2020/12/11 03:13:04;;;;;;;20.00;9.80;;;2.60;67.60;;;;;;5054404;28;20024;-71
2020/12/11 03:15:30;;;;;;;21.42;10.10;;;2.60;67.70;;;;;;5054373;28;20021;-71
2020/12/11 03:17:55;;;;;;;19.98;9.73;;;2.50;67.50;;;;;;5052893;28;20028;-72
2020/12/11 03:20:24;;;;;;;37.45;10.07;;;2.50;67.30;;;;;;5053926;28;20107;-72
2020/12/11 03:22:52;;;;;;;20.83;9.65;;;2.40;67.60;;;;;;5053929;28;20020;-71
2020/12/11 03:25:18;;;;;;;19.42;9.63;;;2.30;67.90;;;;;;5053604;28;20049;-72
2020/12/11 03:27:43;;;;;;;22.55;10.23;;;2.40;68.10;;;;;;5054043;28;20025;-72
2020/12/11 03:30:09;;;;;;;27.63;9.90;;;2.30;68.00;;;;;;5053143;28;20021;-72
2020/12/11 03:32:36;;;;;;;27.63;11.35;;;2.40;67.90;;;;;;5054007;28;20033;-71
2020/12/11 03:35:02;;;;;;;24.98;10.75;;;2.30;67.70;;;;;;5054032;28;20028;-71
2020/12/11 03:37:27;;;;;;;22.48;10.07;;;2.30;68.00;;;;;;5053652;28;20055;-72
2020/12/11 03:39:53;;;;;;;18.63;10.05;;;2.30;68.00;;;;;;5054054;28;20459;-72
2020/12/11 03:42:19;;;;;;;26.75;9.63;;;2.30;68.10;;;;;;5054103;28;20048;-72
2020/12/11 03:44:44;;;;;;;21.00;9.18;;;2.30;68.30;;;;;;5054270;28;20029;-71
2020/12/11 03:47:10;;;;;;;20.25;8.95;;;2.40;68.30;;;;;;5053574;28;20124;-70
2020/12/11 03:49:36;;;;;;;20.17;10.35;;;2.40;68.30;;;;;;5054551;28;20051;-72
2020/12/11 03:52:02;;;;;;;26.13;10.25;;;2.50;68.30;;;;;;5035907;28;20079;-71
2020/12/11 03:54:27;;;;;;;21.25;9.88;;;2.50;68.10;;;;;;5054082;28;20422;-72
2020/12/11 03:56:53;;;;;;;24.17;10.02;;;2.50;68.00;;;;;;5053335;28;20032;-71
2020/12/11 03:59:18;;;;;;;21.70;9.55;;;2.60;67.80;;;;;;5053647;28;20025;-72
2020/12/11 04:01:44;;;;;;;21.52;10.50;;;2.60;67.70;;;;;;5053903;28;20444;-72
2020/12/11 04:04:10;;;;;;;20.20;10.07;;;2.60;67.70;;;;;;5053590;28;20021;-72
2020/12/11 04:06:36;;;;;;;20.77;9.15;;;2.60;67.70;;;;;;5052455;28;20041;-72
2020/12/11 04:09:02;;;;;;;22.15;10.32;;;2.60;67.60;;;;;;5053928;28;20049;-72
2020/12/11 04:11:28;;;;;;;28.73;10.10;;;2.70;67.50;;;;;;5052227;28;20121;-72
2020/12/11 04:13:53;;;;;;;25.90;10.15;;;2.70;67.40;;;;;;5052205;28;20104;-72
2020/12/11 04:16:19;;;;;;;22.67;10.55;;;2.70;67.40;;;;;;5053737;28;20025;-73
2020/12/11 04:18:45;;;;;;;21.02;8.93;;;2.70;67.40;;;;;;5053528;28;20029;-72
2020/12/11 04:21:12;;;;;;;21.48;9.73;;;2.70;67.30;;;;;;5053718;28;20143;-72
2020/12/11 04:23:38;;;;;;;29.10;10.63;;;2.70;66.90;;;;;;5053108;28;20436;-72
2020/12/11 04:26:04;;;;;;;21.77;9.73;;;2.70;66.80;;;;;;5053401;28;20104;-71
2020/12/11 04:28:30;;;;;;;23.92;9.90;;;2.70;66.80;;;;;;5053356;28;20074;-72
2020/12/11 04:30:55;;;;;;;23.75;9.75;;;2.60;66.70;;;;;;5053262;28;20053;-72
2020/12/11 04:33:21;;;;;;;27.27;10.80;;;2.60;67.00;;;;;;5053568;28;20432;-72
2020/12/11 04:35:46;;;;;;;24.98;10.02;;;2.60;67.00;;;;;;5052993;28;20029;-71
2020/12/11 04:38:12;;;;;;;21.48;10.45;;;2.60;67.20;;;;;;5057272;28;20017;-71
2020/12/11 04:40:38;;;;;;;26.67;9.63;;;2.60;67.00;;;;;;5056970;28;20025;-72
2020/12/11 04:43:05;;;;;;;24.23;10.73;;;2.60;66.90;;;;;;5056914;28;20129;-71
2020/12/11 04:45:30;;;;;;;21.30;10.18;;;2.60;66.90;;;;;;5056492;28;20029;-73
2020/12/11 04:47:56;;;;;;;22.98;9.65;;;2.60;67.00;;;;;;5057557;28;20329;-72
2020/12/11 04:50:22;;;;;;;21.08;10.15;;;2.60;66.90;;;;;;5057428;28;20025;-73
2020/12/11 04:52:49;;;;;;;22.45;10.10;;;2.60;66.90;;;;;;5056774;28;20032;-73
2020/12/11 04:55:19;;;;;;;20.15;9.57;;;2.60;66.70;;;;;;5039168;28;20067;-72
2020/12/11 04:57:50;;;;;;;24.20;10.57;;;2.60;66.90;;;;;;5055252;28;20029;-71
2020/12/11 05:00:18;;;;;;;24.65;10.68;;;2.60;66.90;;;;;;5055468;28;20036;-71
2020/12/11 05:02:45;;;;;;;28.45;10.70;;;2.60;66.90;;;;;;5056494;28;20021;-72
2020/12/11 05:05:12;;;;;;;25.00;10.32;;;2.60;66.60;;;;;;5056479;28;20457;-71
2020/12/11 05:07:38;;;;;;;23.65;10.15;;;2.50;66.40;;;;;;5056446;28;20345;-72
2020/12/11 05:10:05;;;;;;;18.40;8.98;;;2.50;66.40;;;;;;5056775;28;20409;-72
2020/12/11 05:12:32;;;;;;;24.77;10.40;;;2.40;66.30;;;;;;5056616;28;20364;-72
2020/12/11 05:14:59;;;;;;;22.73;9.85;;;2.30;66.20;;;;;;5056562;28;20024;-72
2020/12/11 05:17:31;;;;;;;26.50;10.45;;;2.30;66.50;;;;;;5056487;28;20025;-72
2020/12/11 05:19:58;;;;;;;18.17;9.32;;;2.30;66.50;;;;;;5056411;28;20033;-72
2020/12/11 05:22:26;;;;;;;21.88;10.60;;;2.20;66.50;;;;;;5056137;28;20457;-73
2020/12/11 05:24:56;;;;;;;25.30;10.55;;;2.20;66.70;;;;;;5056688;28;20074;-72
2020/12/11 05:27:37;;;;;;;25.15;11.18;;;2.20;66.80;;;;;;5056418;28;20067;-73
2020/12/11 05:30:15;;;;;;;22.02;9.82;;;2.20;66.90;;;;;;5056223;28;20029;-74
2020/12/11 05:32:44;;;;;;;29.60;10.70;;;2.30;66.80;;;;;;5056249;28;20029;-73
2020/12/11 05:35:20;;;;;;;25.17;10.10;;;2.30;66.60;;;;;;5055951;28;20021;-71
2020/12/11 05:37:50;;;;;;;24.52;11.02;;;2.20;66.40;;;;;;5056146;28;20025;-72
2020/12/11 05:40:19;;;;;;;21.13;9.70;;;2.30;66.40;;;;;;5054719;28;20033;-71
2020/12/11 05:43:03;;;;;;;24.90;10.73;;;2.20;66.30;;;;;;5054815;28;20017;-74
2020/12/11 05:45:28;;;;;;;24.00;9.60;;;2.20;66.20;;;;;;5055265;28;20362;-72
2020/12/11 05:48:01;;;;;;;22.63;10.73;;;2.20;66.20;;;;;;5054821;28;20036;-72
2020/12/11 05:50:27;;;;;;;21.55;10.07;;;2.10;65.70;;;;;;5055836;28;20021;-72
2020/12/11 05:52:54;;;;;;;23.27;11.77;;;2.10;66.10;;;;;;5055848;28;20028;-72
2020/12/11 05:55:21;;;;;;;25.85;10.63;;;2.10;66.30;;;;;;5056123;28;20021;-72
2020/12/11 05:57:56;;;;;;;26.00;10.57;;;2.10;66.20;;;;;;5055858;28;20028;-73
2020/12/11 06:00:22;;;;;;;23.17;10.05;;;2.10;66.20;;;;;;5055749;28;20040;-73
2020/12/11 06:02:50;;;;;;;26.50;10.75;;;2.10;66.10;;;;;;5055357;28;20377;-73
2020/12/11 06:05:17;;;;;;;24.23;10.73;;;2.10;66.00;;;;;;5054175;28;20029;-73
2020/12/11 06:07:44;;;;;;;20.63;10.85;;;2.10;66.00;;;;;;5055554;28;20029;-73
2020/12/11 06:10:15;;;;;;;25.80;11.02;;;2.10;66.00;;;;;;5053395;28;20433;-73
2020/12/11 06:12:41;;;;;;;20.25;10.05;;;2.10;65.90;;;;;;5054712;28;20029;-73
2020/12/11 06:15:22;;;;;;;30.25;11.82;;;2.10;65.80;;;;;;5054409;28;20017;-72
2020/12/11 06:18:08;;;;;;;24.48;10.88;;;2.10;65.80;;;;;;5054564;28;20457;-72
2020/12/11 06:20:35;;;;;;;27.25;10.52;;;2.20;66.00;;;;;;5054331;28;20021;-73
2020/12/11 06:23:20;;;;;;;29.48;10.85;;;2.20;65.70;;;;;;5054192;28;20457;-73
2020/12/11 06:25:51;;;;;;;22.25;10.02;;;2.20;65.40;;;;;;5053017;28;20029;-72
2020/12/11 06:28:36;;;;;;;27.23;11.05;;;2.20;65.30;;;;;;5054150;28;20020;-72
2020/12/11 06:31:22;;;;;;;28.42;12.35;;;2.20;65.50;;;;;;5052779;28;20052;-72
2020/12/11 06:33:50;;;;;;;24.30;10.18;;;2.30;65.70;;;;;;5053926;28;20465;-72
2020/12/11 06:36:17;;;;;;;25.08;10.77;;;2.30;65.60;;;;;;5054300;28;20067;-72
2020/12/11 06:38:48;;;;;;;24.75;11.15;;;2.30;65.30;;;;;;5054031;28;20373;-72
2020/12/11 06:41:35;;;;;;;27.45;11.23;;;2.40;65.40;;;;;;5054060;28;20429;-72
2020/12/11 06:44:09;;;;;;;25.27;11.63;;;2.40;65.30;;;;;;5054070;28;20029;-71
2020/12/11 06:46:35;;;;;;;25.70;11.38;;;2.40;65.00;;;;;;5053522;28;20104;-73
2020/12/11 06:49:19;;;;;;;25.02;11.50;;;2.40;65.20;;;;;;5054195;28;20202;-72
2020/12/11 06:51:45;;;;;;;27.63;11.05;;;2.40;65.20;;;;;;5054110;28;20024;-72
2020/12/11 06:54:20;;;;;;;22.77;10.65;;;2.50;65.30;;;;;;5054228;28;20029;-72
2020/12/11 06:56:48;;;;;;;;;;;2.50;65.00;;;;;;5053892;28;20021;-72
2020/12/11 06:59:36;;;;;;;22.40;9.93;;;2.50;65.00;;;;;;5052538;28;19912;-72
2020/12/11 07:02:02;;;;;;;21.55;10.40;;;2.50;64.70;;;;;;5054163;28;20024;-72
2020/12/11 07:04:44;;;;;;;21.63;10.73;;;2.50;64.80;;;;;;5054099;28;20029;-72
2020/12/11 07:07:10;;;;;;;25.17;10.55;;;2.50;64.70;;;;;;5054230;28;20028;-74
2020/12/11 07:09:43;;;;;;;24.63;10.32;;;2.50;64.60;;;;;;5024821;28;829282;-73
2020/12/11 07:12:09;;;;;;;31.50;11.52;;;2.50;64.60;;;;;;5054412;28;20522;-72
2020/12/11 07:14:35;;;;;;;25.48;11.38;;;2.40;64.40;;;;;;5054294;28;20016;-71
2020/12/11 07:17:02;;;;;;;24.63;10.32;;;2.50;64.50;;;;;;5055126;28;20025;-74
2020/12/11 07:19:38;;;;;;;23.77;11.32;;;2.40;64.10;;;;;;5054452;28;20033;-73
2020/12/11 07:22:06;;;;;;;22.45;10.40;;;2.40;64.00;;;;;;5054763;28;20017;-73
2020/12/11 07:24:35;;;;;;;25.58;11.75;;;2.40;64.20;;;;;;5053779;28;20298;-72
2020/12/11 07:27:06;;;;;;;21.48;10.32;;;2.30;64.00;;;;;;5054939;28;20032;-73
2020/12/11 07:29:31;;;;;;;20.30;10.32;;;2.30;64.10;;;;;;5055771;28;20028;-73
2020/12/11 07:31:57;;;;;;;33.63;14.50;;;2.40;64.30;;;;;;5053791;28;20024;-73
2020/12/11 07:34:25;;;;;;;27.45;11.95;;;2.40;64.10;;;;;;5054047;28;20029;-73
2020/12/11 07:36:58;;;;;;;25.08;10.90;;;2.40;64.00;;;;;;5052430;28;20024;-73
2020/12/11 07:39:29;;;;;;;29.00;11.50;;;2.40;64.10;;;;;;5053868;28;20032;-71
2020/12/11 07:41:56;;;;;;;28.13;12.52;;;2.40;64.60;;;;;;5053837;28;20032;-73
2020/12/11 07:44:25;;;;;;;26.45;11.95;;;2.40;63.90;;;;;;5054069;28;20024;-73
2020/12/11 07:46:52;;;;;;;22.90;11.65;;;2.40;63.70;;;;;;5054079;28;20027;-72
2020/12/11 07:49:18;;;;;;;28.25;11.52;;;2.40;63.50;;;;;;5053736;28;20036;-72
2020/12/11 07:51:52;;;;;;;23.95;11.45;;;2.30;63.60;;;;;;5052758;28;20024;-72
2020/12/11 07:54:19;;;;;;;24.65;12.05;;;2.30;63.70;;;;;;5053709;28;20021;-71
2020/12/11 07:56:44;;;;;;;27.00;11.07;;;2.30;63.80;;;;;;5053742;28;20032;-72
2020/12/11 07:59:12;;;;;;;26.73;11.43;;;2.30;63.60;;;;;;5053197;28;20029;-73
2020/12/11 08:01:46;;;;;;;30.20;12.18;;;2.30;63.60;;;;;;5052217;28;20021;-76
2020/12/11 08:04:13;;;;;;;20.95;10.75;;;2.30;63.70;;;;;;5053278;28;20529;-73
2020/12/11 08:06:39;;;;;;;26.17;11.98;;;2.40;63.60;;;;;;5053797;28;20033;-74
2020/12/11 08:09:14;;;;;;;27.88;12.05;;;2.40;63.70;;;;;;5053261;28;20048;-73
2020/12/11 08:11:43;;;;;;;28.25;12.50;;;2.40;63.60;;;;;;5053654;28;20029;-75
2020/12/11 08:14:13;;;;;;;25.02;11.82;;;2.50;63.60;;;;;;5052837;28;20025;-71
2020/12/11 08:16:42;;;;;;;27.27;12.18;;;2.50;63.50;;;;;;5052602;28;20058;-73
2020/12/11 08:19:11;;;;;;;29.75;12.55;;;2.50;63.40;;;;;;5052311;28;20055;-74
2020/12/11 08:21:36;;;;;;;27.85;12.23;;;2.50;63.30;;;;;;5053269;28;20111;-72
2020/12/11 08:24:02;;;;;;;27.98;12.93;;;2.50;63.10;;;;;;5053709;28;20129;-74
2020/12/11 08:26:46;;;;;;;25.25;12.23;;;2.50;63.30;;;;;;5052077;28;20017;-73
2020/12/11 08:29:12;;;;;;;30.30;13.80;;;2.50;63.00;;;;;;5051676;28;20116;-73
2020/12/11 08:31:42;;;;;;;30.02;13.90;;;2.50;62.90;;;;;;5052927;28;20048;-73
2020/12/11 08:34:10;;;;;;;31.23;13.63;;;2.50;63.20;;;;;;5052839;28;20025;-73
2020/12/11 08:36:41;;;;;;;26.95;13.50;;;2.50;63.30;;;;;;5052889;28;20101;-73
2020/12/11 08:39:22;;;;;;;26.95;13.23;;;2.60;63.30;;;;;;5053435;28;20052;-73
2020/12/11 08:50:39;;;;;;;29.00;12.73;;;2.40;62.50;;;;;;5053160;28;20029;-74
2020/12/11 08:53:08;;;;;;;26.75;13.02;;;2.40;62.80;;;;;;5052947;28;20025;-73
2020/12/11 08:55:34;;;;;;;26.25;12.90;;;2.40;62.90;;;;;;5053677;28;20025;-73
2020/12/11 08:58:00;;;;;;;28.70;13.45;;;2.40;63.20;;;;;;5051907;28;20103;-72
2020/12/11 09:00:26;;;;;;;23.67;12.43;;;2.40;63.20;;;;;;5051516;28;20464;-72
2020/12/11 09:02:52;;;;;;;28.63;12.48;;;2.40;62.90;;;;;;5051662;28;20116;-71
2020/12/11 09:05:18;;;;;;;28.42;13.32;;;2.40;62.90;;;;;;5052666;28;20067;-72
2020/12/11 09:07:44;;;;;;;24.65;11.95;;;2.40;63.00;;;;;;5051505;28;20023;-75
2020/12/11 09:10:10;;;;;;;24.75;12.30;;;2.50;63.10;;;;;;5052710;28;20052;-72
2020/12/11 09:12:36;;;;;;;25.67;11.93;;;2.50;62.90;;;;;;5052990;28;20021;-73
2020/12/11 09:15:08;;;;;;;25.08;11.57;;;2.50;62.90;;;;;;5052905;28;20100;-74
2020/12/11 09:17:33;;;;;;;26.52;11.57;;;2.50;62.70;;;;;;5052642;28;20052;-73
2020/12/11 09:20:00;;;;;;;30.20;12.82;;;2.50;62.70;;;;;;5051547;28;20037;-73
2020/12/11 09:22:25;;;;;;;26.85;11.50;;;2.50;62.50;;;;;;5035820;28;20124;-72
2020/12/11 09:24:51;;;;;;;24.88;12.82;;;2.40;62.60;;;;;;5056543;28;20151;-72
2020/12/11 09:27:17;;;;;;;24.95;11.93;;;2.40;62.60;;;;;;5056527;28;20016;-73
2020/12/11 09:29:45;;;;;;;25.02;11.30;;;2.40;62.70;;;;;;5056721;28;20024;-72
2020/12/11 09:32:20;;;;;;;22.88;11.60;;;2.40;62.90;;;;;;5056516;28;20024;-72
2020/12/11 09:34:46;;;;;;;25.85;12.15;;;2.40;63.00;;;;;;5056667;28;20027;-73
2020/12/11 09:37:12;;;;;;;27.85;11.77;;;2.50;63.00;;;;;;5055081;28;20364;-73
2020/12/11 09:39:38;;;;;;;24.40;12.40;;;2.50;62.90;;;;;;5056265;28;20095;-72
2020/12/11 09:42:20;;;;;;;22.80;12.20;;;2.50;62.90;;;;;;5055904;28;20452;-73
2020/12/11 09:45:31;;;;;;;24.23;12.02;;;2.50;63.00;;;;;;5056467;28;20421;-72
2020/12/11 09:47:44;;;;;;;23.00;11.70;;;2.60;63.00;;;;;;5058220;28;20090;-73
2020/12/11 09:55:19;;;;;;;27.08;11.82;;;2.70;62.90;;;;;;5055959;28;20021;-73
2020/12/11 09:57:45;;;;;;;22.55;11.40;;;2.70;62.70;;;;;;5056164;28;20522;-73
2020/12/11 10:00:11;;;;;;;25.98;12.30;;;2.70;62.50;;;;;;5055912;28;20457;-73
2020/12/11 10:05:04;;;;;;;18.60;10.77;;;2.70;62.40;;;;;;5056149;28;20021;-73
2020/12/11 10:07:29;;;;;;;22.70;11.15;;;2.60;62.40;;;;;;5055982;28;20188;-72
2020/12/11 10:09:55;;;;;;;22.10;10.57;;;2.60;62.40;;;;;;5054331;28;20544;-74
2020/12/11 10:12:24;;;;;;;22.55;11.57;;;2.60;62.60;;;;;;5056043;28;20364;-73
2020/12/11 10:14:57;;;;;;;25.63;12.25;;;2.60;62.60;;;;;;5056503;28;20027;-72
2020/12/11 10:17:22;;;;;;;21.05;11.05;;;2.60;62.40;;;;;;5055147;28;20021;-74
2020/12/11 10:19:48;;;;;;;23.30;10.82;;;2.60;62.60;;;;;;5054257;28;20380;-73
2020/12/11 10:22:14;;;;;;;23.92;11.02;;;2.60;62.60;;;;;;5055158;28;20021;-73
2020/12/11 10:24:40;;;;;;;23.40;11.63;;;2.60;62.60;;;;;;5055075;28;20028;-73
2020/12/11 10:27:05;;;;;;;21.90;12.55;;;2.70;62.50;;;;;;5055139;28;20029;-74
2020/12/11 10:29:31;;;;;;;23.90;12.45;;;2.70;62.40;;;;;;5054951;28;20123;-72
2020/12/11 10:31:57;;;;;;;23.30;11.65;;;2.70;62.40;;;;;;5055018;28;20025;-73
2020/12/11 10:34:23;;;;;;;21.27;10.32;;;2.70;62.20;;;;;;5053446;28;20048;-73
2020/12/11 10:36:49;;;;;;;25.00;13.00;;;2.60;61.90;;;;;;5055121;28;20021;-73
2020/12/11 10:39:15;;;;;;;25.42;11.27;;;2.50;62.00;;;;;;5055305;28;20072;-73
2020/12/11 10:41:41;;;;;;;24.77;11.70;;;2.50;62.40;;;;;;5054991;28;20456;-72
2020/12/11 10:44:07;;;;;;;22.40;11.95;;;2.50;62.40;;;;;;5054566;28;20017;-73
2020/12/11 10:46:33;;;;;;;21.92;11.25;;;2.50;62.20;;;;;;5054856;28;20017;-73
2020/12/11 10:48:59;;;;;;;25.38;12.65;;;2.50;62.40;;;;;;5053483;28;20071;-72
2020/12/11 10:51:25;;;;;;;25.80;12.32;;;2.40;62.30;;;;;;5053980;28;20025;-72
2020/12/11 10:53:51;;;;;;;27.63;12.95;;;2.40;62.50;;;;;;5053406;28;20357;-73
2020/12/11 10:56:19;;;;;;;25.83;11.40;;;2.40;62.60;;;;;;5053726;28;20021;-73
2020/12/11 10:58:46;;;;;;;24.17;11.77;;;2.40;62.80;;;;;;5053354;28;20040;-74
2020/12/11 11:01:12;;;;;;;23.85;11.75;;;2.40;62.90;;;;;;5054639;28;20048;-73
2020/12/11 11:03:39;;;;;;;28.52;13.10;;;2.40;62.70;;;;;;5052673;28;20071;-73
2020/12/11 11:06:13;;;;;;;30.05;14.15;;;2.40;62.80;;;;;;5054281;28;20525;-73
2020/12/11 11:11:11;;;;;;;23.23;12.02;;;2.40;62.80;;;;;;5054513;28;20029;-74
2020/12/11 11:13:59;;;;;;;25.17;12.40;;;2.40;62.80;;;;;;5054165;28;20028;-74
2020/12/11 11:16:45;;;;;;;24.23;12.30;;;2.40;62.80;;;;;;5054986;28;20078;-72
2020/12/11 11:19:42;;;;;;;25.92;12.55;;;2.40;62.90;;;;;;5054533;28;20125;-73
2020/12/11 11:22:24;;;;;;;32.88;13.98;;;2.40;63.00;;;;;;5054217;28;20066;-74
2020/12/11 11:27:22;;;;;;;29.67;12.40;;;2.50;63.10;;;;;;5054092;28;20333;-75
2020/12/11 11:29:48;;;;;;;27.30;13.25;;;2.50;63.00;;;;;;5054583;28;20036;-72
2020/12/11 11:32:13;;;;;;;32.22;13.65;;;2.50;63.00;;;;;;5053730;28;20024;-75
2020/12/11 11:34:39;;;;;;;27.30;13.68;;;2.50;63.10;;;;;;5053985;28;20025;-74
2020/12/11 11:37:05;;;;;;;26.40;13.40;;;2.50;63.20;;;;;;5054558;28;20025;-74
2020/12/11 11:39:30;;;;;;;28.73;12.85;;;2.50;63.30;;;;;;5053984;28;20037;-73
2020/12/11 11:41:57;;;;;;;27.30;14.20;;;2.60;63.30;;;;;;5053987;28;20021;-74
2020/12/11 11:46:52;;;;;;;22.50;13.35;;;2.60;63.20;;;;;;5054340;28;20036;-73
2020/12/11 11:49:54;;;;;;;31.02;13.63;;;2.70;63.40;;;;;;5053820;28;20025;-73
2020/12/11 11:54:30;;;;;;;24.98;12.38;;;2.70;63.20;;;;;;5053741;28;20125;-73
2020/12/11 11:56:59;;;;;;;24.55;12.65;;;2.70;63.10;;;;;;5053559;28;20053;-74
2020/12/11 11:59:25;;;;;;;25.00;12.48;;;2.70;62.90;;;;;;5054316;28;20021;-73
2020/12/11 12:01:54;;;;;;;22.58;12.18;;;2.70;62.90;;;;;;5051908;28;20075;-74
2020/12/11 12:04:21;;;;;;;25.33;12.75;;;2.60;62.70;;;;;;5053521;28;20073;-73
2020/12/11 12:06:49;;;;;;;28.42;13.13;;;2.50;62.80;;;;;;5052449;28;20047;-73
2020/12/11 12:09:17;;;;;;;26.90;13.73;;;2.50;63.20;;;;;;5053525;28;20133;-71
2020/12/11 12:11:44;;;;;;;25.45;12.00;;;2.50;63.40;;;;;;5053403;28;20071;-76
2020/12/11 12:14:10;;;;;;;27.77;12.70;;;2.50;63.40;;;;;;5052541;28;20387;-73
2020/12/11 12:16:37;;;;;;;27.00;13.48;;;2.50;62.90;;;;;;5053609;28;20398;-72
2020/12/11 12:19:04;;;;;;;25.95;11.88;;;2.40;62.90;;;;;;5051851;28;20064;-74
2020/12/11 12:29:29;;;;;;;22.45;12.00;;;2.50;63.70;;;;;;5053454;28;20440;-74
2020/12/11 12:31:59;;;;;;;21.75;10.90;;;2.60;63.70;;;;;;5052326;28;20021;-74
2020/12/11 12:42:23;;;;;;;23.90;11.25;;;3.10;63.30;;;;;;5053152;28;20017;-72
2020/12/11 12:44:50;;;;;;;24.08;11.95;;;3.20;63.10;;;;;;5052126;28;20507;-71
2020/12/11 12:47:17;;;;;;;22.63;10.77;;;3.30;62.80;;;;;;5052216;28;20025;-73
2020/12/11 12:49:43;;;;;;;25.25;11.02;;;3.30;62.60;;;;;;5053121;28;20029;-71
2020/12/11 12:52:10;;;;;;;24.10;11.00;;;3.30;62.50;;;;;;5052658;28;20028;-73
2020/12/11 12:54:36;;;;;;;24.70;11.65;;;3.30;62.50;;;;;;5053557;28;20019;-73
2020/12/11 12:57:06;;;;;;;24.63;11.55;;;3.30;62.50;;;;;;5053645;28;20029;-72
2020/12/11 13:00:04;;;;;;;19.73;11.40;;;3.30;62.60;;;;;;5055959;28;20029;-72
2020/12/11 13:05:09;;;;;;;23.60;12.10;;;3.40;62.50;;;;;;5056727;28;20021;-73
2020/12/11 13:07:37;;;;;;;25.75;12.27;;;3.40;62.50;;;;;;5057304;28;20021;-72
2020/12/11 13:10:05;;;;;;;21.45;11.65;;;3.30;62.60;;;;;;5055570;28;20419;-72
2020/12/11 13:12:31;;;;;;;24.90;12.70;;;3.30;62.50;;;;;;5055764;28;20032;-73
2020/12/11 13:14:57;;;;;;;22.42;12.20;;;3.20;62.60;;;;;;5056923;28;20017;-74
2020/12/11 13:17:24;;;;;;;24.15;10.65;;;3.20;62.90;;;;;;5055641;28;20074;-73
2020/12/11 13:19:50;;;;;;;25.23;12.75;;;3.10;62.80;;;;;;5055240;28;20422;-74
2020/12/11 13:27:44;;;;;;;24.73;11.32;;;3.10;62.90;;;;;;5056391;28;20123;-74
2020/12/11 13:30:12;;;;;;;25.58;11.55;;;3.00;62.90;;;;;;5056422;28;20103;-73
2020/12/11 13:32:38;;;;;;;20.77;10.65;;;3.00;62.80;;;;;;5056727;28;20021;-74